Time;durP1;ratioP1;P1;durP2;ratioP2;P2;SDS_P1;SDS_P2;PMS_P1;PMS_P2;Temp;Humidity;BMP_temperature;BMP_pressure;BME280_temperature;BME280_humidity;BME280_pressure;Samples;Min_cycle;Max_cycle;Signal;HPM_P1;HPM_P2
2023/12/04 00:01:16;;;;;;;3.38;1.40;;;7.60;99.90;;;;;;5021994;28;20057;-76
2023/12/04 00:03:43;;;;;;;1.95;1.38;;;7.60;99.90;;;;;;5005532;28;20252;-75
2023/12/04 00:06:13;;;;;;;3.30;1.48;;;7.50;99.90;;;;;;5005089;28;20115;-76
2023/12/04 00:08:40;;;;;;;2.15;1.58;;;7.50;99.90;;;;;;5023082;28;20128;-75
2023/12/04 00:11:07;;;;;;;3.00;1.75;;;7.50;99.90;;;;;;4988281;28;20060;-75
2023/12/04 00:13:34;;;;;;;2.60;1.70;;;7.50;99.90;;;;;;5022499;28;20041;-76
2023/12/04 00:16:01;;;;;;;2.47;1.48;;;7.40;62.60;;;;;;5004914;28;20045;-75
2023/12/04 00:18:28;;;;;;;1.75;1.60;;;7.40;99.90;;;;;;5005973;28;20081;-76
2023/12/04 00:20:56;;;;;;;1.60;1.20;;;7.40;99.90;;;;;;4989255;28;20125;-76
2023/12/04 00:23:23;;;;;;;2.45;1.38;;;7.30;1.00;;;;;;5021538;28;20057;-76
2023/12/04 00:25:51;;;;;;;3.42;1.73;;;7.30;99.90;;;;;;4987686;28;20054;-76
2023/12/04 00:28:18;;;;;;;2.28;1.50;;;7.30;1.00;;;;;;5021878;28;20107;-76
2023/12/04 00:30:45;;;;;;;2.75;1.60;;;7.20;99.90;;;;;;5004814;28;20045;-76
2023/12/04 00:33:11;;;;;;;2.92;1.75;;;7.20;90.40;;;;;;5020916;28;20053;-76
2023/12/04 00:35:39;;;;;;;2.38;1.90;;;7.20;99.90;;;;;;5020552;28;20111;-75
2023/12/04 00:38:06;;;;;;;2.97;1.80;;;7.10;1.00;;;;;;5021089;28;20375;-75
2023/12/04 00:40:33;;;;;;;2.55;1.73;;;7.10;1.00;;;;;;5016668;28;20116;-75
2023/12/04 00:43:00;;;;;;;3.13;1.50;;;7.00;1.00;;;;;;4982950;28;20116;-75
2023/12/04 00:45:26;;;;;;;2.28;1.55;;;7.00;48.80;;;;;;5002593;28;20108;-76
2023/12/04 00:47:53;;;;;;;2.90;1.90;;;7.00;36.80;;;;;;5022261;28;20060;-75
2023/12/04 00:50:20;;;;;;;2.28;1.42;;;6.90;1.00;;;;;;5021601;28;20045;-75
2023/12/04 00:52:47;;;;;;;2.58;1.65;;;6.90;99.90;;;;;;5022284;28;20556;-76
2023/12/04 00:55:15;;;;;;;2.83;1.60;;;6.90;99.90;;;;;;5003312;28;20053;-75
2023/12/04 00:57:42;;;;;;;2.78;1.50;;;6.90;99.90;;;;;;5022279;28;20049;-76
2023/12/04 01:00:11;;;;;;;2.13;1.50;;;6.80;99.90;;;;;;5004327;28;20046;-76
2023/12/04 01:02:38;;;;;;;2.92;1.70;;;6.80;99.90;;;;;;5017787;28;20045;-75
2023/12/04 01:05:05;;;;;;;2.75;1.60;;;6.80;99.90;;;;;;5017106;28;20041;-76
2023/12/04 01:07:32;;;;;;;2.35;1.48;;;6.80;1.00;;;;;;5020494;28;20384;-76
2023/12/04 01:09:59;;;;;;;1.90;1.30;;;6.80;1.00;;;;;;5003455;28;20057;-76
2023/12/04 01:12:26;;;;;;;1.90;1.60;;;6.80;1.00;;;;;;5021694;28;20311;-76
2023/12/04 01:14:53;;;;;;;2.83;1.60;;;6.80;99.90;;;;;;5004240;28;20475;-76
2023/12/04 01:17:20;;;;;;;3.00;1.77;;;6.70;99.90;;;;;;5020676;28;20092;-75
2023/12/04 01:19:47;;;;;;;2.05;1.30;;;6.80;99.90;;;;;;5004269;28;20049;-75
2023/12/04 01:22:14;;;;;;;2.03;1.30;;;6.70;99.90;;;;;;5004397;28;20419;-76
2023/12/04 01:24:41;;;;;;;2.78;1.60;;;6.70;1.00;;;;;;5020757;28;20152;-75
2023/12/04 01:27:08;;;;;;;2.65;1.38;;;6.70;99.90;;;;;;5002662;28;20055;-75
2023/12/04 01:29:35;;;;;;;4.22;1.92;;;6.60;99.90;;;;;;5002754;28;20159;-75
2023/12/04 01:32:02;;;;;;;3.47;1.48;;;6.60;99.90;;;;;;5007027;28;20049;-76
2023/12/04 01:34:29;;;;;;;4.65;1.98;;;6.60;99.90;;;;;;5020977;28;20061;-76
2023/12/04 01:36:57;;;;;;;1.98;1.30;;;6.60;1.00;;;;;;5003415;28;20097;-75
2023/12/04 01:39:24;;;;;;;1.90;1.25;;;6.60;99.90;;;;;;5020695;28;20053;-76
2023/12/04 01:41:51;;;;;;;2.55;1.60;;;6.60;99.90;;;;;;5019579;28;20088;-76
2023/12/04 01:44:18;;;;;;;3.25;1.58;;;6.50;1.00;;;;;;5019991;28;20045;-76
2023/12/04 01:46:45;;;;;;;2.35;1.42;;;6.50;1.00;;;;;;5020886;28;20089;-76
2023/12/04 01:49:12;;;;;;;1.88;1.38;;;6.50;99.90;;;;;;5020029;28;20116;-76
2023/12/04 01:51:39;;;;;;;3.50;2.22;;;6.50;99.90;;;;;;5019526;28;20148;-76
2023/12/04 01:54:06;;;;;;;3.88;1.88;;;6.50;99.90;;;;;;5018692;28;20652;-76
2023/12/04 01:56:34;;;;;;;2.17;1.40;;;6.40;99.90;;;;;;4985381;28;20104;-76
2023/12/04 01:59:01;;;;;;;2.22;1.30;;;6.40;26.40;;;;;;5019979;28;20061;-76
2023/12/04 02:01:28;;;;;;;2.72;1.15;;;6.40;99.90;;;;;;5020496;28;20053;-75
2023/12/04 02:03:56;;;;;;;1.98;1.50;;;6.40;99.90;;;;;;5019707;28;20057;-76
2023/12/04 02:06:22;;;;;;;2.70;1.30;;;6.40;99.70;;;;;;5003009;28;20125;-76
2023/12/04 02:08:49;;;;;;;1.50;1.00;;;6.30;1.00;;;;;;5003354;28;20167;-76
2023/12/04 02:11:16;;;;;;;3.63;1.70;;;6.40;38.90;;;;;;4985247;28;20629;-76
2023/12/04 02:13:43;;;;;;;1.88;1.30;;;6.30;99.90;;;;;;5003841;28;20080;-76
2023/12/04 02:16:10;;;;;;;1.85;1.30;;;6.30;1.00;;;;;;5003204;28;20128;-75
2023/12/04 02:18:37;;;;;;;2.38;1.90;;;6.30;1.00;;;;;;5003291;28;20123;-75
2023/12/04 02:21:04;;;;;;;1.45;1.10;;;6.30;19.10;;;;;;5003244;28;20060;-75
2023/12/04 02:23:31;;;;;;;2.17;1.60;;;6.30;99.90;;;;;;4986568;28;20049;-75
2023/12/04 02:26:05;;;;;;;2.50;1.50;;;6.20;55.20;;;;;;5001021;28;20842;-75
2023/12/04 02:28:33;;;;;;;1.83;1.42;;;6.20;99.90;;;;;;5019457;28;20064;-76
2023/12/04 02:31:01;;;;;;;1.73;0.95;;;6.20;99.90;;;;;;5019998;28;20045;-75
2023/12/04 02:33:28;;;;;;;1.25;0.90;;;6.20;99.90;;;;;;5019056;28;20058;-76
2023/12/04 02:35:55;;;;;;;1.27;0.98;;;6.20;99.90;;;;;;4990285;28;20088;-76
2023/12/04 02:38:22;;;;;;;1.25;0.90;;;6.20;99.90;;;;;;4990098;28;20119;-76
2023/12/04 02:40:49;;;;;;;1.60;1.00;;;6.20;99.90;;;;;;5022183;28;20150;-76
2023/12/04 02:43:16;;;;;;;2.42;1.30;;;6.20;99.90;;;;;;5023603;28;20107;-76
2023/12/04 02:45:43;;;;;;;1.60;1.13;;;6.20;99.90;;;;;;4990588;28;20192;-76
2023/12/04 02:48:10;;;;;;;2.40;1.10;;;6.20;1.00;;;;;;4990245;28;20104;-76
2023/12/04 02:50:37;;;;;;;1.60;1.45;;;6.20;1.00;;;;;;5006651;28;20124;-76
2023/12/04 02:53:04;;;;;;;1.92;0.93;;;6.20;1.00;;;;;;5022208;28;20134;-76
2023/12/04 02:55:31;;;;;;;1.60;1.10;;;6.20;1.00;;;;;;4988806;28;20060;-76
2023/12/04 02:57:58;;;;;;;1.65;1.00;;;6.20;6.00;;;;;;5006167;28;20053;-75
2023/12/04 03:00:25;;;;;;;1.60;0.80;;;6.20;99.90;;;;;;4989976;28;20053;-75
2023/12/04 03:02:52;;;;;;;1.88;0.95;;;6.20;99.90;;;;;;5022871;28;20195;-75
2023/12/04 03:05:19;;;;;;;2.65;1.48;;;6.20;99.90;;;;;;5022947;28;20049;-75
2023/12/04 03:07:46;;;;;;;2.40;1.10;;;6.30;99.90;;;;;;5006049;28;20053;-76
2023/12/04 03:10:13;;;;;;;1.48;0.90;;;6.30;99.90;;;;;;5004961;28;20065;-76
2023/12/04 03:12:40;;;;;;;1.60;0.70;;;6.30;99.90;;;;;;5021988;28;20124;-76
2023/12/04 03:15:08;;;;;;;1.35;0.80;;;6.30;99.90;;;;;;5023452;28;20395;-76
2023/12/04 03:17:34;;;;;;;1.17;0.68;;;6.30;99.90;;;;;;5023869;28;20049;-76
2023/12/04 03:20:02;;;;;;;2.45;0.70;;;6.30;99.90;;;;;;5006231;28;20055;-76
2023/12/04 03:22:29;;;;;;;2.38;0.88;;;6.30;99.90;;;;;;5006146;28;20574;-76
2023/12/04 03:24:56;;;;;;;1.25;0.93;;;6.30;99.90;;;;;;5024272;28;20081;-76
2023/12/04 03:27:23;;;;;;;1.20;0.60;;;6.40;99.90;;;;;;5025798;28;20058;-75
2023/12/04 03:29:49;;;;;;;1.17;0.73;;;6.30;99.90;;;;;;5025836;28;20131;-76
2023/12/04 03:32:16;;;;;;;3.00;0.88;;;6.30;99.90;;;;;;5009731;28;20119;-76
2023/12/04 03:34:43;;;;;;;1.38;0.70;;;6.40;99.90;;;;;;5009186;28;20049;-75
2023/12/04 03:37:10;;;;;;;2.20;0.60;;;6.40;99.90;;;;;;4993515;28;20505;-76
2023/12/04 03:39:38;;;;;;;1.35;0.77;;;6.40;99.90;;;;;;5025258;28;20056;-76
2023/12/04 03:42:05;;;;;;;1.58;0.90;;;6.40;99.90;;;;;;5024994;28;20136;-75
2023/12/04 03:44:32;;;;;;;0.85;0.68;;;6.40;99.90;;;;;;5025667;28;20060;-76
2023/12/04 03:47:00;;;;;;;1.80;0.70;;;6.40;99.90;;;;;;5027618;28;20136;-76
2023/12/04 03:49:26;;;;;;;0.85;0.80;;;6.40;99.90;;;;;;5025467;28;20199;-76
2023/12/04 03:51:53;;;;;;;2.13;0.85;;;6.40;99.90;;;;;;5009021;28;20060;-76
2023/12/04 03:54:20;;;;;;;0.77;0.60;;;6.40;99.90;;;;;;5026431;28;20048;-76
2023/12/04 03:56:47;;;;;;;1.05;0.50;;;6.40;99.90;;;;;;5008410;28;20061;-76
2023/12/04 03:59:14;;;;;;;1.15;0.68;;;6.40;99.90;;;;;;5009568;28;20053;-75
2023/12/04 04:01:41;;;;;;;0.90;0.50;;;6.40;99.90;;;;;;4992774;28;20064;-76
2023/12/04 04:04:08;;;;;;;1.02;0.70;;;6.40;99.90;;;;;;5025543;28;20450;-76
2023/12/04 04:06:38;;;;;;;1.20;0.75;;;6.40;99.90;;;;;;5009682;28;20440;-76
2023/12/04 04:09:05;;;;;;;1.52;0.73;;;6.40;99.90;;;;;;4993559;28;20447;-76
2023/12/04 04:11:32;;;;;;;1.13;0.70;;;6.40;99.90;;;;;;5007923;28;20057;-76
2023/12/04 04:13:59;;;;;;;1.20;0.70;;;6.50;99.90;;;;;;5009123;28;20107;-76
2023/12/04 04:16:26;;;;;;;1.35;0.70;;;6.40;99.90;;;;;;5026236;28;20095;-76
2023/12/04 04:18:53;;;;;;;2.22;0.70;;;6.50;99.90;;;;;;5026634;28;20059;-75
2023/12/04 04:21:20;;;;;;;1.42;0.60;;;6.50;99.90;;;;;;5024733;28;20050;-76
2023/12/04 04:23:47;;;;;;;0.93;0.52;;;6.50;99.90;;;;;;5007886;28;20065;-76
2023/12/04 04:26:13;;;;;;;1.00;0.50;;;6.50;99.90;;;;;;5023752;28;20057;-76
2023/12/04 04:28:40;;;;;;;0.82;0.60;;;6.50;99.90;;;;;;5024989;28;20053;-75
2023/12/04 04:31:07;;;;;;;1.98;0.90;;;6.50;99.90;;;;;;5025479;28;20065;-76
2023/12/04 04:33:34;;;;;;;1.30;0.77;;;6.50;99.90;;;;;;5024744;28;20071;-75
2023/12/04 04:36:01;;;;;;;1.27;0.70;;;6.50;1.00;;;;;;5025639;28;20406;-75
2023/12/04 04:38:29;;;;;;;1.63;0.65;;;6.50;1.00;;;;;;5024820;28;20053;-75
2023/12/04 04:40:56;;;;;;;2.33;0.95;;;6.50;1.00;;;;;;5024829;28;20057;-76
2023/12/04 04:43:23;;;;;;;2.80;1.13;;;6.50;1.00;;;;;;5024730;28;20049;-75
2023/12/04 04:45:51;;;;;;;2.28;0.82;;;6.50;1.00;;;;;;5008800;28;20049;-75
2023/12/04 04:48:19;;;;;;;1.27;0.90;;;6.50;1.00;;;;;;5025131;28;20142;-75
2023/12/04 04:50:46;;;;;;;2.00;0.70;;;6.50;1.00;;;;;;5025884;28;20402;-75
2023/12/04 04:53:13;;;;;;;0.68;0.55;;;6.50;1.00;;;;;;5025647;28;20053;-75
2023/12/04 04:55:40;;;;;;;1.85;0.80;;;6.50;1.00;;;;;;5023316;28;20049;-75
2023/12/04 04:58:18;;;;;;;2.15;1.02;;;6.50;1.00;;;;;;5024584;28;20049;-75
2023/12/04 05:00:45;;;;;;;1.20;1.08;;;6.50;1.00;;;;;;5008798;28;20119;-75
2023/12/04 05:03:12;;;;;;;1.17;0.75;;;6.50;1.00;;;;;;5007725;28;20136;-75
2023/12/04 05:05:39;;;;;;;0.73;0.52;;;6.50;1.00;;;;;;4991788;28;20056;-76
2023/12/04 05:08:06;;;;;;;1.35;0.80;;;6.50;1.00;;;;;;5007784;28;20509;-76
2023/12/04 05:10:33;;;;;;;1.20;0.77;;;6.40;1.00;;;;;;5023421;28;20045;-75
2023/12/04 05:12:59;;;;;;;1.02;0.93;;;6.40;1.00;;;;;;5023356;28;20057;-76
2023/12/04 05:15:26;;;;;;;2.55;1.25;;;6.40;12.60;;;;;;5024270;28;20483;-75
2023/12/04 05:17:54;;;;;;;0.82;0.70;;;6.40;55.50;;;;;;5024355;28;20155;-75
2023/12/04 05:20:21;;;;;;;1.48;0.93;;;6.50;21.00;;;;;;5024963;28;20498;-75
2023/12/04 05:22:49;;;;;;;1.30;0.70;;;6.40;47.10;;;;;;5025756;28;20461;-75
2023/12/04 05:25:16;;;;;;;1.17;0.77;;;6.50;59.80;;;;;;5022952;28;20089;-76
2023/12/04 05:27:43;;;;;;;2.35;0.70;;;6.40;9.40;;;;;;4991391;28;20056;-76
2023/12/04 05:30:11;;;;;;;1.30;1.00;;;6.40;99.90;;;;;;5023501;28;20391;-76
2023/12/04 05:32:38;;;;;;;2.05;0.85;;;6.40;61.70;;;;;;5021712;28;20423;-75
2023/12/04 05:35:05;;;;;;;1.65;0.63;;;6.40;20.10;;;;;;5001006;28;20045;-77
2023/12/04 05:37:32;;;;;;;2.10;1.00;;;6.40;90.40;;;;;;5010922;28;20071;-76
2023/12/04 05:39:59;;;;;;;1.73;0.70;;;6.40;97.00;;;;;;5021683;28;20445;-77
2023/12/04 05:42:26;;;;;;;1.55;0.80;;;6.40;91.10;;;;;;5007253;28;20053;-76
2023/12/04 05:45:07;;;;;;;0.70;0.50;;;6.40;86.90;;;;;;5109689;27;20903;-77
2023/12/04 05:47:34;;;;;;;1.50;1.00;;;6.50;44.60;;;;;;5089483;28;20054;-76
2023/12/04 05:50:01;;;;;;;0.82;0.65;;;6.50;20.30;;;;;;5085399;28;20122;-76
2023/12/04 05:52:29;;;;;;;0.68;0.60;;;6.50;8.70;;;;;;5081310;28;20121;-76
2023/12/04 05:54:55;;;;;;;0.80;0.77;;;6.50;1.00;;;;;;5107934;28;20113;-76
2023/12/04 05:57:22;;;;;;;0.73;0.50;;;6.50;1.00;;;;;;5105209;28;20062;-76
2023/12/04 05:59:49;;;;;;;1.00;0.77;;;6.50;1.00;;;;;;5097977;28;20139;-76
2023/12/04 06:02:16;;;;;;;1.55;0.80;;;6.50;1.00;;;;;;5082515;28;20465;-76
2023/12/04 06:04:43;;;;;;;0.60;0.50;;;6.50;1.00;;;;;;5097078;28;20040;-76
2023/12/04 06:07:09;;;;;;;1.23;0.50;;;6.60;1.00;;;;;;5096857;28;20085;-77
2023/12/04 06:09:36;;;;;;;1.23;0.68;;;6.60;99.90;;;;;;5096542;28;20050;-76
2023/12/04 06:12:08;;;;;;;0.40;0.40;;;6.60;1.00;;;;;;5084318;28;20047;-76
2023/12/04 06:14:35;;;;;;;0.85;0.60;;;6.60;99.90;;;;;;5081190;28;20040;-76
2023/12/04 06:17:02;;;;;;;1.50;0.60;;;6.60;99.90;;;;;;5068657;28;20699;-76
2023/12/04 06:19:29;;;;;;;1.10;1.00;;;6.60;99.90;;;;;;5081838;28;20075;-76
2023/12/04 06:21:56;;;;;;;0.70;0.50;;;6.60;99.90;;;;;;5095516;28;20044;-77
2023/12/04 06:24:23;;;;;;;1.70;0.50;;;6.60;99.90;;;;;;5095177;28;20518;-76
2023/12/04 06:26:52;;;;;;;0.75;0.60;;;6.60;99.90;;;;;;5091251;28;20124;-76
2023/12/04 06:29:19;;;;;;;0.85;0.60;;;6.60;99.90;;;;;;5095121;28;20051;-76
2023/12/04 06:31:46;;;;;;;0.90;0.68;;;6.60;99.90;;;;;;5072527;28;20102;-76
2023/12/04 06:34:13;;;;;;;1.10;0.70;;;6.60;99.90;;;;;;5077362;28;20422;-76
2023/12/04 06:36:41;;;;;;;1.55;0.80;;;6.60;99.90;;;;;;5094410;28;20544;-76
2023/12/04 06:39:12;;;;;;;0.98;0.57;;;6.60;99.90;;;;;;5094994;28;20593;-76
2023/12/04 06:41:40;;;;;;;0.50;0.40;;;6.60;99.90;;;;;;5093098;28;20040;-78
2023/12/04 06:44:07;;;;;;;1.05;0.85;;;6.60;99.90;;;;;;5099099;28;20108;-76
2023/12/04 06:46:37;;;;;;;1.05;0.70;;;6.60;99.90;;;;;;5101797;28;20105;-76
2023/12/04 06:49:06;;;;;;;1.20;0.90;;;6.60;99.90;;;;;;5085090;28;20126;-77
2023/12/04 06:51:33;;;;;;;0.90;0.60;;;6.60;99.90;;;;;;5099261;28;20146;-77
2023/12/04 06:54:00;;;;;;;0.95;0.82;;;6.60;99.90;;;;;;5080630;28;20240;-77
2023/12/04 06:56:27;;;;;;;0.63;0.40;;;6.60;99.90;;;;;;5070627;28;20040;-76
2023/12/04 06:58:53;;;;;;;0.75;0.57;;;6.60;99.90;;;;;;5063547;28;20456;-77
2023/12/04 07:01:21;;;;;;;0.90;0.50;;;6.60;42.60;;;;;;5091741;28;20112;-77
2023/12/04 07:03:48;;;;;;;0.75;0.55;;;6.70;13.80;;;;;;5086667;28;20488;-77
2023/12/04 07:06:15;;;;;;;1.05;0.50;;;6.60;1.00;;;;;;5096639;28;20490;-77
2023/12/04 07:08:42;;;;;;;0.40;0.40;;;6.60;11.50;;;;;;5088821;28;20501;-77
2023/12/04 07:11:09;;;;;;;0.82;0.52;;;6.60;1.00;;;;;;5084347;28;20043;-77
2023/12/04 07:13:36;;;;;;;0.80;0.50;;;6.70;25.00;;;;;;5054188;28;20101;-76
2023/12/04 07:16:03;;;;;;;1.80;1.00;;;6.70;99.90;;;;;;5066217;28;20052;-76
2023/12/04 07:18:30;;;;;;;0.47;0.47;;;6.70;39.00;;;;;;5085474;28;20151;-75
2023/12/04 07:20:57;;;;;;;0.85;0.70;;;6.70;99.90;;;;;;5084574;28;20062;-75
2023/12/04 07:23:24;;;;;;;0.80;0.60;;;6.70;99.90;;;;;;5085693;28;20044;-76
2023/12/04 07:25:53;;;;;;;0.45;0.38;;;6.70;79.20;;;;;;5080456;28;20063;-75
2023/12/04 07:28:20;;;;;;;0.40;0.40;;;6.70;99.90;;;;;;5093434;28;20433;-76
2023/12/04 07:30:47;;;;;;;2.30;0.50;;;6.70;99.90;;;;;;5063959;28;20442;-75
2023/12/04 07:33:14;;;;;;;0.60;0.40;;;6.70;99.90;;;;;;5092717;28;20047;-76
2023/12/04 07:35:41;;;;;;;0.60;0.60;;;6.80;95.60;;;;;;5067120;28;20079;-75
2023/12/04 07:38:08;;;;;;;0.68;0.45;;;6.80;99.90;;;;;;5070467;28;20049;-75
2023/12/04 07:40:34;;;;;;;0.82;0.43;;;6.80;99.90;;;;;;5069337;28;20447;-75
2023/12/04 07:43:02;;;;;;;0.47;0.40;;;6.80;1.00;;;;;;5079697;28;20655;-75
2023/12/04 07:45:29;;;;;;;1.08;0.70;;;6.80;1.00;;;;;;5045321;28;20476;-75
2023/12/04 07:47:56;;;;;;;1.55;0.70;;;6.80;1.00;;;;;;5066857;28;20044;-76
2023/12/04 07:50:24;;;;;;;1.50;1.00;;;6.80;28.40;;;;;;5096306;28;20044;-76
2023/12/04 07:52:51;;;;;;;0.70;0.70;;;6.80;82.80;;;;;;5077501;28;20048;-76
2023/12/04 07:55:18;;;;;;;0.70;0.60;;;6.80;99.90;;;;;;5066941;28;20089;-75
2023/12/04 07:57:44;;;;;;;0.90;0.50;;;6.80;99.90;;;;;;5087878;28;20048;-76
2023/12/04 08:00:12;;;;;;;1.00;0.63;;;6.80;99.90;;;;;;5085246;28;20060;-76
2023/12/04 08:02:39;;;;;;;0.88;0.77;;;6.80;91.80;;;;;;5069415;28;20046;-76
2023/12/04 08:05:06;;;;;;;1.42;0.85;;;6.80;99.90;;;;;;5079470;28;20059;-76
2023/12/04 08:07:34;;;;;;;0.50;0.50;;;6.80;89.50;;;;;;5088413;28;20264;-76
2023/12/04 08:10:01;;;;;;;0.98;0.52;;;6.80;99.90;;;;;;5067992;28;20466;-76
2023/12/04 08:12:28;;;;;;;0.98;0.73;;;6.90;99.90;;;;;;5083410;28;20087;-77
2023/12/04 08:14:57;;;;;;;0.77;0.60;;;6.90;99.90;;;;;;5082855;28;20044;-76
2023/12/04 08:17:24;;;;;;;1.27;0.68;;;6.90;99.90;;;;;;5066971;28;20052;-76
2023/12/04 08:19:50;;;;;;;1.15;0.60;;;6.90;67.00;;;;;;5084876;28;20076;-76
2023/12/04 08:22:19;;;;;;;1.15;0.52;;;6.90;83.00;;;;;;5084985;28;20058;-76
2023/12/04 08:24:46;;;;;;;1.20;0.50;;;6.90;99.90;;;;;;5082443;28;20052;-76
2023/12/04 08:27:13;;;;;;;1.27;0.63;;;7.00;1.00;;;;;;5072114;28;20521;-76
2023/12/04 08:29:40;;;;;;;0.95;0.70;;;7.00;1.00;;;;;;5098399;28;20060;-76
2023/12/04 08:32:07;;;;;;;0.47;0.47;;;7.00;1.00;;;;;;5084129;28;20052;-76
2023/12/04 08:34:34;;;;;;;0.68;0.60;;;7.00;1.00;;;;;;5078198;28;20075;-76
2023/12/04 08:37:02;;;;;;;1.08;0.60;;;7.10;99.90;;;;;;5082854;28;20055;-76
2023/12/04 08:39:29;;;;;;;1.17;0.70;;;7.10;94.70;;;;;;5062103;28;20144;-76
2023/12/04 08:41:56;;;;;;;0.90;0.55;;;7.20;1.00;;;;;;5045570;28;20486;-76
2023/12/04 08:44:30;;;;;;;1.33;0.68;;;7.30;1.00;;;;;;5078333;28;20060;-76
2023/12/04 08:46:57;;;;;;;1.30;0.80;;;7.30;99.90;;;;;;5053400;28;20048;-77
2023/12/04 08:49:24;;;;;;;0.73;0.60;;;7.40;99.90;;;;;;5059336;28;20063;-76
2023/12/04 08:52:05;;;;;;;0.88;0.68;;;7.40;1.00;;;;;;5044536;28;20071;-76
2023/12/04 08:54:32;;;;;;;0.93;0.80;;;7.40;99.90;;;;;;5055271;28;20041;-76
2023/12/04 08:56:59;;;;;;;1.48;0.60;;;7.40;1.00;;;;;;5046232;28;20082;-76
2023/12/04 08:59:27;;;;;;;1.95;1.00;;;7.40;99.90;;;;;;5082563;28;20093;-76
2023/12/04 09:01:54;;;;;;;0.75;0.68;;;7.40;1.00;;;;;;5065851;28;20052;-76
2023/12/04 09:04:21;;;;;;;0.95;0.75;;;7.40;1.00;;;;;;5081607;28;20482;-76
2023/12/04 09:06:49;;;;;;;0.82;0.70;;;7.30;1.00;;;;;;5065604;28;20054;-76
2023/12/04 09:09:18;;;;;;;0.73;0.70;;;7.30;1.00;;;;;;5083863;28;20055;-76
2023/12/04 09:11:46;;;;;;;0.95;0.52;;;7.30;1.00;;;;;;5081235;28;20171;-76
2023/12/04 09:14:12;;;;;;;1.00;0.57;;;7.30;1.00;;;;;;5083807;28;20079;-76
2023/12/04 09:16:39;;;;;;;0.82;0.63;;;7.30;19.00;;;;;;5048971;28;20084;-76
2023/12/04 09:19:06;;;;;;;1.13;1.00;;;7.30;6.90;;;;;;5065508;28;20048;-76
2023/12/04 09:21:33;;;;;;;0.77;0.50;;;7.30;99.90;;;;;;5064220;28;20063;-76
2023/12/04 09:24:00;;;;;;;0.65;0.65;;;7.40;99.90;;;;;;5070245;28;20513;-76
2023/12/04 09:26:27;;;;;;;0.82;0.60;;;7.40;1.00;;;;;;5031396;28;20689;-76
2023/12/04 09:28:55;;;;;;;1.90;1.00;;;7.40;1.00;;;;;;5060053;28;20045;-77
2023/12/04 09:31:21;;;;;;;2.45;0.85;;;7.40;99.90;;;;;;5078619;28;20769;-77
2023/12/04 09:33:48;;;;;;;0.95;0.73;;;7.50;99.90;;;;;;5035329;28;20039;-77
2023/12/04 09:36:16;;;;;;;0.80;0.60;;;7.60;99.90;;;;;;5070606;28;20561;-76
2023/12/04 09:38:43;;;;;;;1.02;0.80;;;7.60;1.00;;;;;;5054895;28;20143;-77
2023/12/04 09:41:10;;;;;;;1.15;0.80;;;7.60;1.00;;;;;;5070714;28;20186;-77
2023/12/04 09:43:37;;;;;;;1.85;0.88;;;7.70;99.90;;;;;;5053906;28;20048;-77
2023/12/04 09:46:05;;;;;;;1.58;0.90;;;7.80;99.90;;;;;;5058493;28;20600;-77
2023/12/04 09:48:32;;;;;;;0.98;0.60;;;7.80;78.60;;;;;;5041099;28;20058;-76
2023/12/04 09:50:59;;;;;;;0.77;0.65;;;7.90;99.90;;;;;;5042201;28;20048;-77
2023/12/04 09:53:26;;;;;;;0.50;0.40;;;7.90;99.90;;;;;;5073800;28;20093;-77
2023/12/04 09:55:54;;;;;;;0.65;0.55;;;7.90;64.30;;;;;;5071821;28;20056;-77
2023/12/04 09:58:20;;;;;;;0.77;0.50;;;7.90;1.00;;;;;;5074454;28;20139;-77
2023/12/04 10:00:48;;;;;;;0.63;0.55;;;7.90;1.00;;;;;;5039578;28;20066;-77
2023/12/04 10:03:15;;;;;;;0.70;0.52;;;8.00;1.00;;;;;;5074192;28;20055;-77
2023/12/04 10:05:45;;;;;;;0.80;0.70;;;8.00;99.90;;;;;;5057982;28;20090;-77
2023/12/04 10:08:12;;;;;;;1.05;0.50;;;7.90;99.90;;;;;;5041854;28;20559;-77
2023/12/04 10:10:39;;;;;;;0.38;0.35;;;7.90;99.90;;;;;;5070990;28;20113;-77
2023/12/04 10:13:06;;;;;;;0.70;0.52;;;8.00;1.00;;;;;;5039915;28;20052;-77
2023/12/04 10:15:33;;;;;;;0.77;0.50;;;8.00;1.00;;;;;;5057369;28;20059;-76
2023/12/04 10:18:00;;;;;;;0.73;0.63;;;8.10;1.00;;;;;;5077227;28;20500;-77
2023/12/04 10:20:28;;;;;;;0.80;0.55;;;8.10;99.90;;;;;;5079580;28;20044;-77
2023/12/04 10:22:59;;;;;;;0.80;0.50;;;8.20;99.90;;;;;;5055325;28;20730;-77
2023/12/04 10:25:28;;;;;;;0.60;0.50;;;8.20;99.90;;;;;;5078587;28;20487;-77
2023/12/04 10:28:09;;;;;;;0.75;0.65;;;8.20;99.90;;;;;;5061736;28;20674;-76
2023/12/04 10:30:36;;;;;;;0.68;0.60;;;8.20;99.90;;;;;;5078738;28;20048;-76
2023/12/04 10:33:04;;;;;;;0.90;0.63;;;8.20;99.90;;;;;;5081614;28;20105;-76
2023/12/04 10:35:33;;;;;;;1.02;0.57;;;8.20;99.90;;;;;;5082316;28;20048;-75
2023/12/04 10:38:00;;;;;;;1.77;1.00;;;8.20;92.30;;;;;;5082582;28;20660;-78
2023/12/04 10:40:27;;;;;;;1.55;0.90;;;8.10;99.90;;;;;;5082576;28;20059;-76
2023/12/04 10:43:14;;;;;;;1.20;0.90;;;8.10;99.90;;;;;;5064195;28;20052;-76
2023/12/04 10:45:42;;;;;;;1.55;0.88;;;8.10;99.90;;;;;;5081776;28;20052;-75
2023/12/04 10:48:10;;;;;;;1.38;0.65;;;8.10;99.90;;;;;;5081362;28;20441;-76
2023/12/04 10:50:38;;;;;;;0.63;0.50;;;8.10;99.90;;;;;;5083851;28;20135;-76
2023/12/04 10:53:05;;;;;;;0.60;0.52;;;8.10;99.90;;;;;;5051245;28;20051;-76
2023/12/04 10:55:32;;;;;;;0.73;0.60;;;8.20;99.90;;;;;;5083599;28;20135;-76
2023/12/04 10:58:01;;;;;;;1.00;0.60;;;8.20;90.00;;;;;;5050773;28;20504;-76
2023/12/04 11:00:28;;;;;;;1.60;0.70;;;8.20;99.90;;;;;;5064734;28;20412;-76
2023/12/04 11:02:55;;;;;;;1.10;0.45;;;8.20;99.90;;;;;;5051168;28;20386;-76
2023/12/04 11:05:23;;;;;;;2.22;0.95;;;8.30;99.90;;;;;;5047454;28;20664;-75
2023/12/04 11:07:52;;;;;;;1.25;0.90;;;8.30;99.90;;;;;;5080294;28;20052;-75
2023/12/04 11:11:04;;;;;;;2.03;0.90;;;8.30;1.00;;;;;;5069758;28;20054;-76
2023/12/04 11:13:32;;;;;;;1.77;0.70;;;8.30;1.00;;;;;;5086856;28;20120;-77
2023/12/04 11:16:07;;;;;;;0.82;0.57;;;8.30;1.00;;;;;;5085536;28;20047;-77
2023/12/04 11:18:39;;;;;;;1.15;0.93;;;8.30;91.70;;;;;;5082798;28;20546;-76
2023/12/04 11:21:08;;;;;;;1.45;1.00;;;8.40;1.00;;;;;;5067199;28;20040;-77
2023/12/04 11:23:35;;;;;;;1.45;0.80;;;8.40;90.50;;;;;;5086659;28;20615;-76
2023/12/04 11:26:03;;;;;;;1.33;0.93;;;8.60;99.90;;;;;;5091327;28;20064;-77
2023/12/04 11:28:31;;;;;;;1.98;0.98;;;8.70;1.00;;;;;;5065373;28;20056;-76
2023/12/04 11:30:59;;;;;;;1.08;0.70;;;8.70;99.90;;;;;;5068075;28;20060;-76
2023/12/04 11:33:27;;;;;;;1.15;0.75;;;8.60;1.00;;;;;;5081813;28;20051;-77
2023/12/04 11:36:06;;;;;;;1.60;0.90;;;8.60;99.90;;;;;;5084295;28;20109;-76
2023/12/04 11:38:36;;;;;;;1.30;0.75;;;8.60;99.90;;;;;;5073954;28;20070;-76
2023/12/04 11:41:23;;;;;;;1.25;0.73;;;8.60;1.00;;;;;;5075890;28;20637;-76
2023/12/04 11:43:55;;;;;;;3.25;1.65;;;8.60;1.00;;;;;;5079756;28;20044;-76
2023/12/04 11:46:23;;;;;;;1.30;0.90;;;8.60;79.50;;;;;;5079500;28;20044;-76
2023/12/04 11:48:54;;;;;;;2.05;1.20;;;8.60;30.20;;;;;;5081203;28;20131;-76
2023/12/04 11:51:42;;;;;;;1.40;0.90;;;8.50;1.00;;;;;;5064956;28;20050;-76
2023/12/04 11:54:10;;;;;;;1.98;1.00;;;8.50;1.00;;;;;;5076291;28;20135;-76
2023/12/04 11:56:36;;;;;;;1.08;0.75;;;8.50;1.00;;;;;;5081399;28;20543;-76
2023/12/04 11:59:04;;;;;;;1.40;0.75;;;8.50;1.00;;;;;;5047511;28;20489;-76
2023/12/04 12:01:36;;;;;;;0.63;0.55;;;8.50;87.00;;;;;;5082562;28;20066;-76
2023/12/04 12:04:06;;;;;;;1.25;0.73;;;8.50;56.00;;;;;;5078633;28;20093;-77
2023/12/04 12:06:34;;;;;;;1.50;0.90;;;8.50;99.90;;;;;;5081681;28;20048;-77
2023/12/04 12:09:01;;;;;;;0.75;0.60;;;8.50;99.90;;;;;;5063367;28;20055;-77
2023/12/04 12:11:28;;;;;;;1.63;1.17;;;8.60;99.90;;;;;;5061876;28;20063;-76
2023/12/04 12:13:55;;;;;;;1.63;0.90;;;8.50;59.80;;;;;;5080423;28;20052;-76
2023/12/04 12:16:21;;;;;;;1.15;0.70;;;8.50;99.90;;;;;;5063668;28;20056;-76
2023/12/04 12:18:49;;;;;;;1.05;0.70;;;8.50;99.90;;;;;;5046804;28;20115;-78
2023/12/04 12:21:16;;;;;;;1.25;0.93;;;8.50;99.90;;;;;;5063446;28;20131;-74
2023/12/04 12:23:43;;;;;;;1.50;1.15;;;8.50;99.90;;;;;;5060781;28;20097;-74
2023/12/04 12:26:11;;;;;;;1.20;0.63;;;8.50;99.90;;;;;;5077474;28;20191;-76
2023/12/04 12:28:38;;;;;;;0.65;0.60;;;8.50;99.90;;;;;;5065295;28;20139;-77
2023/12/04 12:31:05;;;;;;;0.50;0.50;;;8.50;1.00;;;;;;5076992;28;20052;-78
2023/12/04 12:33:32;;;;;;;0.75;0.50;;;8.50;99.90;;;;;;5074133;28;20080;-78
2023/12/04 12:35:59;;;;;;;0.90;0.63;;;8.50;99.90;;;;;;5076033;28;20635;-77
2023/12/04 12:38:34;;;;;;;0.50;0.43;;;8.50;99.90;;;;;;5071526;28;20048;-77
2023/12/04 12:41:01;;;;;;;0.95;0.70;;;8.60;99.90;;;;;;5058809;28;20056;-77
2023/12/04 12:43:28;;;;;;;1.30;1.00;;;8.50;99.90;;;;;;5068054;28;20055;-77
2023/12/04 12:45:55;;;;;;;1.50;1.05;;;8.50;99.90;;;;;;5074687;28;20056;-77
2023/12/04 12:48:22;;;;;;;1.15;0.90;;;8.50;99.90;;;;;;5071502;28;20151;-77
2023/12/04 12:50:50;;;;;;;1.05;0.80;;;8.50;99.90;;;;;;5077577;28;20044;-77
2023/12/04 12:53:17;;;;;;;1.17;0.90;;;8.50;34.20;;;;;;5073571;28;20048;-77
2023/12/04 12:55:44;;;;;;;1.42;0.80;;;8.40;99.90;;;;;;5068840;28;20062;-77
2023/12/04 12:58:13;;;;;;;0.93;0.60;;;8.40;99.90;;;;;;5069829;28;20146;-76
2023/12/04 13:00:43;;;;;;;1.45;0.90;;;8.50;99.90;;;;;;5071487;28;20140;-77
2023/12/04 13:03:17;;;;;;;0.77;0.50;;;8.40;99.90;;;;;;5073514;28;20067;-79